Pagina principală
METAR-TAF:

METAR-TAF

Aeroporturi :

Eastern Oregon Regional Airport at Pendleton

Pendleton, Oregon, Statele Unite ale Americii

Latitudine: 45-41-54N, longitudine: 118-50-03W, elevație: 455 m

Observații meteo curente

Raportul a fost făcut în urmă cu 54 de minute, la 05:53 UTC
Vânt 16 kt de la Vest/Sud-vest
Temperatură 17°C
Umiditate 48%
Presiune 1015 hPa
Vizibilitate: 16.1 km
Cer senin

METAR: KPDT 240553Z AUTO 25016KT 10SM CLR 17/06 A2998 RMK AO2 PK WND 24026/0527 SLP139 T01720056 10278 20172 53021

Ora: 23:47 (06:47 UTC)

Prognoză

Raportul a fost făcut în urmă cu 1 oră și 17 de minute, la 05:30 UTC
Prognoză valabilă de la 24 ora 06 UTC la 25 ora 06 UTC
Vânt 14 kt de la Vest
Vizibilitate: 10 km
Cer senin
De la 24 ora 0800 UTC
Vânt 6 kt de la Vest
Vizibilitate: 10 km
Cer senin

TAF: KPDT 240530Z 2406/2506 27014KT P6SM SKC FM240800 27006KT P6SM SKC

Observații și prognoze meteo pentru peste 4.000 de aeroporturi (rapoarte METAR și TAF).

Stațiile disponibile sunt reprezentate pe hartă prin puncte galbene și roșii.

Țineți indicatorul mouse-ului pe punctul dorit pentru a vedea denumirea stației.

Apoi, faceți clic pentru a vedea observațiile și prognozele meteorologice.

Pentru a schimba harta: Pentru mărire, faceți clic pe butoanele verzi cu cruce neagră; pentru micșorare, pe butonul verde cu o liniuță; pentru hărți învecinate, pe săgețile verzi.


METAR-TAF: